Aurora — ZCDW9 — position and weather

sailwx.info

Track history (hours):
 
Tides and Currents Weather Stations Pressure Air Temp Water Temp Dewpoint Dewpoint Depression Visibility Wind Speed Wind Dir Waves Ship Positions

Aurora (Bermuda)

Last reported at 2019-Oct-16 13:00 UTC. Time now 2019-Oct-16 19:59 UTC.
Position N 44°00' W 009°00'.

Length 271 m; draft 8.3 m.

Type: Ship. MMSI: 310555970.

Wind from 010 at 7 knots

Barometer 1009.8 mb
Air temperature 17.0 ° C
Visibility: greater than 10.8 NM
Dewpoint 13.5 ° C
Water temperature 16.0 ° C

Date/timePositionNaut miles runAvg speedWind from/ knotsBaromVisibWave heightAir tempDewpointWater temp
2019-Oct-16 13:00N 44°00' W 009°00'4916.5 010 / 71009.810.8 17.013.516.0
2019-Oct-16 10:00N 43°18' W 009°36'5413.5 300 / 181010.4 2.2 18.517.718.0
2019-Oct-16 06:00N 42°24' W 009°42'6613.2 220 / 301013.3 5.4 18.516.218.0
2019-Oct-16 01:00N 41°18' W 009°48'7218.0 220 / 311016.410.8 19.515.319.0
2019-Oct-15 21:00N 40°06' W 009°48'3612.6 230 / 221020.410.8 19.015.619.0
2019-Oct-15 18:08N 39°30' W 009°52'215.0
2019-Oct-15 17:59N 39°28' W 009°52'715.1
2019-Oct-15 17:30N 39°21' W 009°53'714.9
2019-Oct-15 17:00N 39°13' W 009°53'815.3
2019-Oct-15 16:31N 39°06' W 009°52'815.2
2019-Oct-15 16:00N 38°58' W 009°52'714.7
2019-Oct-15 15:30N 38°51' W 009°52'714.5
2019-Oct-15 15:01N 38°43' W 009°51'715.0
2019-Oct-15 14:31N 38°36' W 009°50'714.6
2019-Oct-15 14:00N 38°29' W 009°49'714.5
2019-Oct-15 13:31N 38°22' W 009°46'814.8
2019-Oct-15 13:00N 38°14' W 009°44'714.8
2019-Oct-15 12:31N 38°07' W 009°42'714.7
2019-Oct-15 12:01N 38°00' W 009°40'714.6
2019-Oct-15 11:31N 37°53' W 009°37'714.7
2019-Oct-15 11:01N 37°46' W 009°35'714.6
2019-Oct-15 10:31N 37°39' W 009°33'1732.1
2019-Oct-15 10:00N 37°24' W 009°24'9464.1 120 / 81024.110.8 19.015.618.0
2019-Oct-15 09:58N 37°31' W 009°31'714.3
2019-Oct-15 09:30N 37°25' W 009°29'2214.3
2019-Oct-15 07:58N 37°04' W 009°23'914.2
2019-Oct-15 07:19N 36°55' W 009°19'514.9
2019-Oct-15 06:58N 36°50' W 009°15'715.0
2019-Oct-15 06:30N 36°45' W 009°09'714.7
2019-Oct-15 06:00N 36°42' W 009°01'168.5
2019-Oct-15 06:00N 36°42' W 009°00'713.8 040 / 151023.010.8 17.0 9.419.0
2019-Oct-15 05:30N 36°40' W 008°52'1415.3
2019-Oct-15 04:37N 36°36' W 008°36'215.2
2019-Oct-15 04:30N 36°36' W 008°34'715.1
2019-Oct-15 04:00N 36°33' W 008°25'815.4
2019-Oct-15 03:30N 36°31' W 008°16'1515.3
2019-Oct-15 02:32N 36°26' W 007°58'2012.7
2019-Oct-15 01:00N 36°18' W 007°36'6616.4 360 / 241021.910.8 19.017.420.0
2019-Oct-14 21:00N 36°00' W 006°18'146 7.7 320 / 221020.810.8 20.016.720.0
2019-Oct-14 02:00N 36°18' W 003°18'5313.4 310 / 51013.310.8 22.021.222.0
2019-Oct-13 22:00N 36°24' W 002°12'6512.9 060 / 191015.710.8 22.020.521.0
2019-Oct-13 17:00N 37°12' W 001°18'38 3.2 1015.510.8 24.0 22.0
2019-Oct-13 05:00N 37°30' W 000°36'4515.0 350 / 251015.910.8 24.021.024.0
2019-Oct-13 02:00N 37°54' E 000°12'6117.1 010 / 191015.710.8 24.021.822.0
2019-Oct-12 22:24N 38°18' E 001°24'818.5
2019-Oct-12 21:57N 38°22' E 001°34'1018.8
2019-Oct-12 21:26N 38°26' E 001°45'818.6
2019-Oct-12 21:00N 38°29' E 001°54'1018.8
2019-Oct-12 20:28N 38°33' E 002°06'918.8
2019-Oct-12 20:00N 38°37' E 002°16'918.7
2019-Oct-12 19:30N 38°41' E 002°27'918.2
2019-Oct-12 18:59N 38°45' E 002°38'1218.3
2019-Oct-12 18:19N 38°49' E 002°52'822.9
2019-Oct-12 18:00N 38°54' E 003°00'230.0 140 / 201018.010.8 23.020.722.0
2019-Oct-12 17:56N 38°52' E 003°01'1118.7
2019-Oct-12 17:22N 38°58' E 003°12'718.4
2019-Oct-12 16:58N 39°02' E 003°21'2818.2
2019-Oct-12 15:27N 39°16' E 003°52'1518.3
2019-Oct-12 14:36N 39°23' E 004°09'2744.3
2019-Oct-12 14:00N 39°48' E 004°24'191144.4 150 / 181019.310.8 23.518.822.0
2019-Oct-12 13:59N 39°29' E 004°21'6418.3
2019-Oct-12 10:30N 40°02' E 005°33'918.3
2019-Oct-12 10:00N 40°06' E 005°43'6917.1
2019-Oct-12 06:00N 40°42' E 007°00'4518.5 150 / 21021.810.8 20.013.022.0
2019-Oct-12 03:33N 41°03' E 007°53'118.3
2019-Oct-12 03:30N 41°04' E 007°54'918.5
2019-Oct-12 03:00N 41°09' E 008°04'918.3
2019-Oct-12 02:30N 41°12' E 008°15'918.8
2019-Oct-12 02:01N 41°14' E 008°27'918.8
2019-Oct-12 01:30N 41°15' E 008°40'919.0
2019-Oct-12 01:00N 41°16' E 008°52'918.6
2019-Oct-12 00:30N 41°17' E 009°05'3618.3
2019-Oct-11 22:33N 41°30' E 009°49'1218.5
2019-Oct-11 21:56N 41°34' E 010°03'818.4
2019-Oct-11 21:30N 41°37' E 010°13'1 2.8
2019-Oct-11 21:00N 41°36' E 010°12'11382.0 280 / 71022.810.8 19.015.621.0
2019-Oct-11 20:58N 41°41' E 010°25'1318.3
2019-Oct-11 20:16N 41°47' E 010°41'918.1
2019-Oct-11 19:47N 41°50' E 010°51'51 2.9
2019-Oct-11 02:00N 41°30' E 011°54'6913.8 1019.010.8 19.018.224.0
2019-Oct-10 21:00N 40°42' E 013°00'2419.3 310 / 161018.210.8 21.016.024.0
2019-Oct-10 19:45N 40°40' E 013°32'416.1
2019-Oct-10 19:29N 40°39' E 013°37'1016.0
2019-Oct-10 18:51N 40°38' E 013°50'616.3
2019-Oct-10 18:30N 40°38' E 013°58'815.9
2019-Oct-10 18:00N 40°41' E 014°08'816.3
2019-Oct-10 17:31N 40°46' E 014°15'4 8.0
2019-Oct-10 17:00N 40°50' E 014°16'0 0.6
2019-Oct-10 16:26N 40°51' E 014°16'0 0.0
2019-Oct-10 15:50N 40°51' E 014°16'0 0.0
2019-Oct-10 15:14N 40°51' E 014°16'0 0.0
2019-Oct-10 14:50N 40°51' E 014°16'0 0.0
2019-Oct-10 14:26N 40°51' E 014°16'0 0.0
2019-Oct-10 13:56N 40°51' E 014°16'0 0.0
2019-Oct-10 13:26N 40°51' E 014°16'0 0.0
2019-Oct-10 12:56N 40°51' E 014°16'0 0.0
2019-Oct-10 12:20N 40°51' E 014°16'0 0.0
2019-Oct-10 11:56N 40°51' E 014°16'0 0.0
2019-Oct-10 11:26N 40°51' E 014°16'0 0.0
2019-Oct-10 10:56N 40°51' E 014°16'0 0.0
2019-Oct-10 10:26N 40°51' E 014°16'0 0.0
2019-Oct-10 09:56N 40°51' E 014°16'0 0.0
2019-Oct-10 09:26N 40°51' E 014°16'0 0.0
2019-Oct-10 08:56N 40°51' E 014°16'0 0.0
2019-Oct-10 08:26N 40°51' E 014°16'0 0.0
2019-Oct-10 07:56N 40°51' E 014°16'0 0.0
2019-Oct-10 07:26N 40°51' E 014°16'0 0.0
2019-Oct-10 06:56N 40°51' E 014°16'0 0.0
2019-Oct-10 06:26N 40°51' E 014°16'0 0.0
2019-Oct-10 05:56N 40°51' E 014°16'0 0.0
2019-Oct-10 05:26N 40°51' E 014°16'0 0.0
2019-Oct-10 04:56N 40°51' E 014°16'0 0.0
2019-Oct-10 04:30N 40°51' E 014°16'1 2.5
2019-Oct-10 04:00N 40°50' E 014°17'611.8
2019-Oct-10 03:30N 40°44' E 014°16'713.2
2019-Oct-10 03:00N 40°38' E 014°11'713.4
2019-Oct-10 02:31N 40°32' E 014°08'815.8
2019-Oct-10 02:00N 40°25' E 014°12'816.0
2019-Oct-10 01:31N 40°18' E 014°17'815.8
2019-Oct-10 01:00N 40°11' E 014°22'815.5
2019-Oct-10 00:30N 40°05' E 014°28'815.5
2019-Oct-09 23:59N 39°58' E 014°34'815.8
2019-Oct-09 23:29N 39°51' E 014°39'3514.1
2019-Oct-09 21:00N 39°18' E 014°54'2417.3 120 / 211017.910.8 23.019.924.0
2019-Oct-09 19:38N 38°60' E 015°14'215.4
2019-Oct-09 19:30N 38°58' E 015°15'815.4
2019-Oct-09 19:00N 38°52' E 015°20'815.5
2019-Oct-09 18:30N 38°45' E 015°25'816.5
2019-Oct-09 18:01N 38°38' E 015°31'816.2
2019-Oct-09 17:31N 38°31' E 015°34'816.2
2019-Oct-09 17:01N 38°24' E 015°39'714.7
2019-Oct-09 16:30N 38°16' E 015°42'713.5
2019-Oct-09 16:00N 38°12' E 015°35'1 2.7
2019-Oct-09 15:29N 38°12' E 015°33'0 0.0
2019-Oct-09 14:59N 38°12' E 015°33'0 0.0
2019-Oct-09 14:29N 38°12' E 015°33'0 0.0
2019-Oct-09 13:59N 38°12' E 015°33'0 0.0
2019-Oct-09 13:29N 38°12' E 015°33'0 0.0
2019-Oct-09 12:59N 38°12' E 015°33'0 0.0
2019-Oct-09 12:26N 38°12' E 015°33'0 0.0
2019-Oct-09 11:56N 38°12' E 015°33'0 0.0
2019-Oct-09 11:26N 38°12' E 015°33'0 0.0
2019-Oct-09 10:59N 38°12' E 015°33'0 0.0
2019-Oct-09 10:29N 38°12' E 015°33'0 0.0
2019-Oct-09 09:59N 38°12' E 015°33'0 0.0
2019-Oct-09 09:26N 38°12' E 015°33'0 0.0
2019-Oct-09 08:59N 38°12' E 015°33'0 0.0
2019-Oct-09 08:29N 38°12' E 015°33'0 0.0
2019-Oct-09 07:59N 38°12' E 015°33'0 0.0
2019-Oct-09 07:29N 38°12' E 015°33'0 0.0
2019-Oct-09 06:59N 38°12' E 015°33'0 0.0
2019-Oct-09 06:29N 38°12' E 015°33'0 0.0
2019-Oct-09 05:59N 38°12' E 015°33'0 0.3
2019-Oct-09 05:30N 38°12' E 015°34'3 5.6
2019-Oct-09 05:00N 38°13' E 015°37'510.5
2019-Oct-09 04:30N 38°08' E 015°37'510.7
2019-Oct-09 04:00N 38°03' E 015°37'510.0
2019-Oct-09 03:30N 37°58' E 015°36'510.8
2019-Oct-09 03:00N 37°52' E 015°36'510.8
2019-Oct-09 02:30N 37°47' E 015°36'611.6
2019-Oct-09 02:00N 37°41' E 015°36'611.2
2019-Oct-09 01:30N 37°35' E 015°37'611.2
2019-Oct-09 01:00N 37°30' E 015°37'612.0
2019-Oct-09 00:30N 37°24' E 015°38'1111.9
2019-Oct-08 23:33N 37°13' E 015°39'212.0
2019-Oct-08 23:23N 37°11' E 015°39'3715.3
2019-Oct-08 21:00N 36°36' E 015°24'4615.4 100 / 401013.7 5.4 24.024.024.0
2019-Oct-08 18:00N 36°00' E 014°48'52 3.2 100 / 491011.8 5.4 25.0
2019-Oct-08 02:00N 36°18' E 013°48'7414.8 030 / 301004.710.8 20.014.925.0
2019-Oct-07 21:00N 36°48' E 012°24'11816.9 030 / 151004.6 5.4 20.016.723.0
2019-Oct-07 14:00N 37°42' E 010°12'5814.5 300 / 161007.310.8 21.513.823.0
2019-Oct-07 10:00N 37°54' E 009°00'6315.7 330 / 361007.6 5.4 21.515.323.0
2019-Oct-07 06:00N 38°06' E 007°42'16518.4 330 / 201009.710.8 23.021.524.0
2019-Oct-06 21:00N 38°48' E 004°18'3517.4 230 / 71016.810.8 24.021.025.0
2019-Oct-06 18:58N 38°56' E 003°34'1617.2
2019-Oct-06 18:02N 39°00' E 003°14'617.3
2019-Oct-06 17:42N 39°01' E 003°07'417.4
2019-Oct-06 17:30N 39°02' E 003°02'817.2
2019-Oct-06 17:00N 39°05' E 002°52'916.9
2019-Oct-06 16:27N 39°13' E 002°46'817.1
2019-Oct-06 16:00N 39°20' E 002°42'816.7
2019-Oct-06 15:30N 39°28' E 002°39'510.0
2019-Oct-06 15:00N 39°33' E 002°38'0 0.3
2019-Oct-06 14:29N 39°33' E 002°38'0 0.0
2019-Oct-06 13:59N 39°33' E 002°38'0 0.0
2019-Oct-06 13:29N 39°33' E 002°38'  
Track history (hours):
 
Tides and Currents Weather Stations Pressure Air Temp Water Temp Dewpoint Dewpoint Depression Visibility Wind Speed Wind Dir Waves Ship Positions

Aurora (Bermuda)

Last reported at 2019-Oct-16 13:00 UTC. Time now 2019-Oct-16 19:59 UTC.
Position N 44°00' W 009°00'.

Length 271 m; draft 8.3 m.

Type: Ship. MMSI: 310555970.

Wind from 010 at 7 knots

Barometer 1009.8 mb
Air temperature 17.0 ° C
Visibility: greater than 10.8 NM
Dewpoint 13.5 ° C
Water temperature 16.0 ° C

Date/timePositionNaut miles runAvg speedWind from/ knotsBaromVisibWave heightAir tempDewpointWater temp
2019-Oct-16 13:00N 44°00' W 009°00'4916.5 010 / 71009.810.8 17.013.516.0
2019-Oct-16 10:00N 43°18' W 009°36'5413.5 300 / 181010.4 2.2 18.517.718.0
2019-Oct-16 06:00N 42°24' W 009°42'6613.2 220 / 301013.3 5.4 18.516.218.0
2019-Oct-16 01:00N 41°18' W 009°48'7218.0 220 / 311016.410.8 19.515.319.0
2019-Oct-15 21:00N 40°06' W 009°48'3612.6 230 / 221020.410.8 19.015.619.0
2019-Oct-15 18:08N 39°30' W 009°52'215.0
2019-Oct-15 17:59N 39°28' W 009°52'715.1
2019-Oct-15 17:30N 39°21' W 009°53'714.9
2019-Oct-15 17:00N 39°13' W 009°53'815.3
2019-Oct-15 16:31N 39°06' W 009°52'815.2
2019-Oct-15 16:00N 38°58' W 009°52'714.7
2019-Oct-15 15:30N 38°51' W 009°52'714.5
2019-Oct-15 15:01N 38°43' W 009°51'715.0
2019-Oct-15 14:31N 38°36' W 009°50'714.6
2019-Oct-15 14:00N 38°29' W 009°49'714.5
2019-Oct-15 13:31N 38°22' W 009°46'814.8
2019-Oct-15 13:00N 38°14' W 009°44'714.8
2019-Oct-15 12:31N 38°07' W 009°42'714.7
2019-Oct-15 12:01N 38°00' W 009°40'714.6
2019-Oct-15 11:31N 37°53' W 009°37'714.7
2019-Oct-15 11:01N 37°46' W 009°35'714.6
2019-Oct-15 10:31N 37°39' W 009°33'1732.1
2019-Oct-15 10:00N 37°24' W 009°24'9464.1 120 / 81024.110.8 19.015.618.0
2019-Oct-15 09:58N 37°31' W 009°31'714.3
2019-Oct-15 09:30N 37°25' W 009°29'2214.3
2019-Oct-15 07:58N 37°04' W 009°23'914.2
2019-Oct-15 07:19N 36°55' W 009°19'514.9
2019-Oct-15 06:58N 36°50' W 009°15'715.0
2019-Oct-15 06:30N 36°45' W 009°09'714.7
2019-Oct-15 06:00N 36°42' W 009°01'168.5
2019-Oct-15 06:00N 36°42' W 009°00'713.8 040 / 151023.010.8 17.0 9.419.0
2019-Oct-15 05:30N 36°40' W 008°52'1415.3
2019-Oct-15 04:37N 36°36' W 008°36'215.2
2019-Oct-15 04:30N 36°36' W 008°34'715.1
2019-Oct-15 04:00N 36°33' W 008°25'815.4
2019-Oct-15 03:30N 36°31' W 008°16'1515.3
2019-Oct-15 02:32N 36°26' W 007°58'2012.7
2019-Oct-15 01:00N 36°18' W 007°36'6616.4 360 / 241021.910.8 19.017.420.0
2019-Oct-14 21:00N 36°00' W 006°18'146 7.7 320 / 221020.810.8 20.016.720.0
2019-Oct-14 02:00N 36°18' W 003°18'5313.4 310 / 51013.310.8 22.021.222.0
2019-Oct-13 22:00N 36°24' W 002°12'6512.9 060 / 191015.710.8 22.020.521.0
2019-Oct-13 17:00N 37°12' W 001°18'38 3.2 1015.510.8 24.0 22.0
2019-Oct-13 05:00N 37°30' W 000°36'4515.0 350 / 251015.910.8 24.021.024.0
2019-Oct-13 02:00N 37°54' E 000°12'6117.1 010 / 191015.710.8 24.021.822.0
2019-Oct-12 22:24N 38°18' E 001°24'818.5
2019-Oct-12 21:57N 38°22' E 001°34'1018.8
2019-Oct-12 21:26N 38°26' E 001°45'818.6
2019-Oct-12 21:00N 38°29' E 001°54'1018.8
2019-Oct-12 20:28N 38°33' E 002°06'918.8
2019-Oct-12 20:00N 38°37' E 002°16'918.7
2019-Oct-12 19:30N 38°41' E 002°27'918.2
2019-Oct-12 18:59N 38°45' E 002°38'1218.3
2019-Oct-12 18:19N 38°49' E 002°52'822.9
2019-Oct-12 18:00N 38°54' E 003°00'230.0 140 / 201018.010.8 23.020.722.0
2019-Oct-12 17:56N 38°52' E 003°01'1118.7
2019-Oct-12 17:22N 38°58' E 003°12'718.4
2019-Oct-12 16:58N 39°02' E 003°21'2818.2
2019-Oct-12 15:27N 39°16' E 003°52'1518.3
2019-Oct-12 14:36N 39°23' E 004°09'2744.3
2019-Oct-12 14:00N 39°48' E 004°24'191144.4 150 / 181019.310.8 23.518.822.0
2019-Oct-12 13:59N 39°29' E 004°21'6418.3
2019-Oct-12 10:30N 40°02' E 005°33'918.3
2019-Oct-12 10:00N 40°06' E 005°43'6917.1
2019-Oct-12 06:00N 40°42' E 007°00'4518.5 150 / 21021.810.8 20.013.022.0
2019-Oct-12 03:33N 41°03' E 007°53'118.3
2019-Oct-12 03:30N 41°04' E 007°54'918.5
2019-Oct-12 03:00N 41°09' E 008°04'918.3
2019-Oct-12 02:30N 41°12' E 008°15'918.8
2019-Oct-12 02:01N 41°14' E 008°27'918.8
2019-Oct-12 01:30N 41°15' E 008°40'919.0
2019-Oct-12 01:00N 41°16' E 008°52'918.6
2019-Oct-12 00:30N 41°17' E 009°05'3618.3
2019-Oct-11 22:33N 41°30' E 009°49'1218.5
2019-Oct-11 21:56N 41°34' E 010°03'818.4
2019-Oct-11 21:30N 41°37' E 010°13'1 2.8
2019-Oct-11 21:00N 41°36' E 010°12'11382.0 280 / 71022.810.8 19.015.621.0
2019-Oct-11 20:58N 41°41' E 010°25'1318.3
2019-Oct-11 20:16N 41°47' E 010°41'918.1
2019-Oct-11 19:47N 41°50' E 010°51'51 2.9
2019-Oct-11 02:00N 41°30' E 011°54'6913.8 1019.010.8 19.018.224.0
2019-Oct-10 21:00N 40°42' E 013°00'2419.3 310 / 161018.210.8 21.016.024.0
2019-Oct-10 19:45N 40°40' E 013°32'416.1
2019-Oct-10 19:29N 40°39' E 013°37'1016.0
2019-Oct-10 18:51N 40°38' E 013°50'616.3
2019-Oct-10 18:30N 40°38' E 013°58'815.9
2019-Oct-10 18:00N 40°41' E 014°08'816.3
2019-Oct-10 17:31N 40°46' E 014°15'4 8.0
2019-Oct-10 17:00N 40°50' E 014°16'0 0.6
2019-Oct-10 16:26N 40°51' E 014°16'0 0.0
2019-Oct-10 15:50N 40°51' E 014°16'0 0.0
2019-Oct-10 15:14N 40°51' E 014°16'0 0.0
2019-Oct-10 14:50N 40°51' E 014°16'0 0.0
2019-Oct-10 14:26N 40°51' E 014°16'0 0.0
2019-Oct-10 13:56N 40°51' E 014°16'0 0.0
2019-Oct-10 13:26N 40°51' E 014°16'0 0.0
2019-Oct-10 12:56N 40°51' E 014°16'0 0.0
2019-Oct-10 12:20N 40°51' E 014°16'0 0.0
2019-Oct-10 11:56N 40°51' E 014°16'0 0.0
2019-Oct-10 11:26N 40°51' E 014°16'0 0.0
2019-Oct-10 10:56N 40°51' E 014°16'0 0.0
2019-Oct-10 10:26N 40°51' E 014°16'0 0.0
2019-Oct-10 09:56N 40°51' E 014°16'0 0.0
2019-Oct-10 09:26N 40°51' E 014°16'0 0.0
2019-Oct-10 08:56N 40°51' E 014°16'0 0.0
2019-Oct-10 08:26N 40°51' E 014°16'0 0.0
2019-Oct-10 07:56N 40°51' E 014°16'0 0.0
2019-Oct-10 07:26N 40°51' E 014°16'0 0.0
2019-Oct-10 06:56N 40°51' E 014°16'0 0.0
2019-Oct-10 06:26N 40°51' E 014°16'0 0.0
2019-Oct-10 05:56N 40°51' E 014°16'0 0.0
2019-Oct-10 05:26N 40°51' E 014°16'0 0.0
2019-Oct-10 04:56N 40°51' E 014°16'0 0.0
2019-Oct-10 04:30N 40°51' E 014°16'1 2.5
2019-Oct-10 04:00N 40°50' E 014°17'611.8
2019-Oct-10 03:30N 40°44' E 014°16'713.2
2019-Oct-10 03:00N 40°38' E 014°11'713.4
2019-Oct-10 02:31N 40°32' E 014°08'815.8
2019-Oct-10 02:00N 40°25' E 014°12'816.0
2019-Oct-10 01:31N 40°18' E 014°17'815.8
2019-Oct-10 01:00N 40°11' E 014°22'815.5
2019-Oct-10 00:30N 40°05' E 014°28'815.5
2019-Oct-09 23:59N 39°58' E 014°34'815.8
2019-Oct-09 23:29N 39°51' E 014°39'3514.1
2019-Oct-09 21:00N 39°18' E 014°54'2417.3 120 / 211017.910.8 23.019.924.0
2019-Oct-09 19:38N 38°60' E 015°14'215.4
2019-Oct-09 19:30N 38°58' E 015°15'815.4
2019-Oct-09 19:00N 38°52' E 015°20'815.5
2019-Oct-09 18:30N 38°45' E 015°25'816.5
2019-Oct-09 18:01N 38°38' E 015°31'816.2
2019-Oct-09 17:31N 38°31' E 015°34'816.2
2019-Oct-09 17:01N 38°24' E 015°39'714.7
2019-Oct-09 16:30N 38°16' E 015°42'713.5
2019-Oct-09 16:00N 38°12' E 015°35'1 2.7
2019-Oct-09 15:29N 38°12' E 015°33'0 0.0
2019-Oct-09 14:59N 38°12' E 015°33'0 0.0
2019-Oct-09 14:29N 38°12' E 015°33'0 0.0
2019-Oct-09 13:59N 38°12' E 015°33'0 0.0
2019-Oct-09 13:29N 38°12' E 015°33'0 0.0
2019-Oct-09 12:59N 38°12' E 015°33'0 0.0
2019-Oct-09 12:26N 38°12' E 015°33'0 0.0
2019-Oct-09 11:56N 38°12' E 015°33'0 0.0
2019-Oct-09 11:26N 38°12' E 015°33'0 0.0
2019-Oct-09 10:59N 38°12' E 015°33'0 0.0
2019-Oct-09 10:29N 38°12' E 015°33'0 0.0
2019-Oct-09 09:59N 38°12' E 015°33'0 0.0
2019-Oct-09 09:26N 38°12' E 015°33'0 0.0
2019-Oct-09 08:59N 38°12' E 015°33'0 0.0
2019-Oct-09 08:29N 38°12' E 015°33'0 0.0
2019-Oct-09 07:59N 38°12' E 015°33'0 0.0
2019-Oct-09 07:29N 38°12' E 015°33'0 0.0
2019-Oct-09 06:59N 38°12' E 015°33'0 0.0
2019-Oct-09 06:29N 38°12' E 015°33'0 0.0
2019-Oct-09 05:59N 38°12' E 015°33'0 0.3
2019-Oct-09 05:30N 38°12' E 015°34'3 5.6
2019-Oct-09 05:00N 38°13' E 015°37'510.5
2019-Oct-09 04:30N 38°08' E 015°37'510.7
2019-Oct-09 04:00N 38°03' E 015°37'510.0
2019-Oct-09 03:30N 37°58' E 015°36'510.8
2019-Oct-09 03:00N 37°52' E 015°36'510.8
2019-Oct-09 02:30N 37°47' E 015°36'611.6
2019-Oct-09 02:00N 37°41' E 015°36'611.2
2019-Oct-09 01:30N 37°35' E 015°37'611.2
2019-Oct-09 01:00N 37°30' E 015°37'612.0
2019-Oct-09 00:30N 37°24' E 015°38'1111.9
2019-Oct-08 23:33N 37°13' E 015°39'212.0
2019-Oct-08 23:23N 37°11' E 015°39'3715.3
2019-Oct-08 21:00N 36°36' E 015°24'4615.4 100 / 401013.7 5.4 24.024.024.0
2019-Oct-08 18:00N 36°00' E 014°48'52 3.2 100 / 491011.8 5.4 25.0
2019-Oct-08 02:00N 36°18' E 013°48'7414.8 030 / 301004.710.8 20.014.925.0
2019-Oct-07 21:00N 36°48' E 012°24'11816.9 030 / 151004.6 5.4 20.016.723.0
2019-Oct-07 14:00N 37°42' E 010°12'5814.5 300 / 161007.310.8 21.513.823.0
2019-Oct-07 10:00N 37°54' E 009°00'6315.7 330 / 361007.6 5.4 21.515.323.0
2019-Oct-07 06:00N 38°06' E 007°42'16518.4 330 / 201009.710.8 23.021.524.0
2019-Oct-06 21:00N 38°48' E 004°18'3517.4 230 / 71016.810.8 24.021.025.0
2019-Oct-06 18:58N 38°56' E 003°34'1617.2
2019-Oct-06 18:02N 39°00' E 003°14'617.3
2019-Oct-06 17:42N 39°01' E 003°07'417.4
2019-Oct-06 17:30N 39°02' E 003°02'817.2
2019-Oct-06 17:00N 39°05' E 002°52'916.9
2019-Oct-06 16:27N 39°13' E 002°46'817.1
2019-Oct-06 16:00N 39°20' E 002°42'816.7
2019-Oct-06 15:30N 39°28' E 002°39'510.0
2019-Oct-06 15:00N 39°33' E 002°38'0 0.3
2019-Oct-06 14:29N 39°33' E 002°38'0 0.0
2019-Oct-06 13:59N 39°33' E 002°38'0 0.0
2019-Oct-06 13:29N 39°33' E 002°38'  

Dump ship's entire track history